Time;durP1;ratioP1;P1;durP2;ratioP2;P2;SDS_P1;SDS_P2;PMS_P1;PMS_P2;Temp;Humidity;BMP_temperature;BMP_pressure;BME280_temperature;BME280_humidity;BME280_pressure;Samples;Min_cycle;Max_cycle;Signal;HPM_P1;HPM_P2
2022/04/27 00:01:39;;;;;;;;;;;11.60;99.90;;;;;;5073440;28;19953;-79
2022/04/27 00:04:05;;;;;;;;;;;11.80;99.90;;;;;;5073404;28;19905;-79
2022/04/27 00:06:31;;;;;;;;;;;11.80;99.90;;;;;;5055405;28;19905;-80
2022/04/27 00:08:56;;;;;;;;;;;11.70;99.90;;;;;;5073334;28;20025;-80
2022/04/27 00:11:22;;;;;;;;;;;11.80;99.90;;;;;;5073190;28;19905;-81
2022/04/27 00:13:48;;;;;;;;;;;11.80;99.90;;;;;;5073246;28;19957;-81
2022/04/27 00:16:13;;;;;;;;;;;11.80;99.90;;;;;;5058097;28;20354;-79
2022/04/27 00:18:39;;;;;;;;;;;11.70;99.90;;;;;;5077208;28;19912;-80
2022/04/27 00:21:05;;;;;;;;;;;11.70;99.90;;;;;;5077320;28;19991;-80
2022/04/27 00:23:32;;;;;;;;;;;11.70;99.90;;;;;;5077149;28;19955;-81
2022/04/27 00:25:58;;;;;;;;;;;11.60;99.90;;;;;;5077030;28;20376;-81
2022/04/27 00:28:24;;;;;;;;;;;11.60;99.90;;;;;;5059021;28;19958;-79
2022/04/27 00:30:49;;;;;;;;;;;11.50;99.90;;;;;;5058968;28;19999;-80
2022/04/27 00:33:15;;;;;;;;;;;11.50;99.90;;;;;;5058918;28;19909;-81
2022/04/27 00:35:41;;;;;;;;;;;11.50;99.90;;;;;;5077009;28;19908;-79
2022/04/27 00:38:06;;;;;;;;;;;11.50;99.90;;;;;;5076395;28;19912;-80
2022/04/27 00:40:32;;;;;;;;;;;11.50;99.90;;;;;;5076787;28;19911;-80
2022/04/27 00:42:58;;;;;;;;;;;11.50;99.90;;;;;;5076719;28;19911;-81
2022/04/27 00:45:23;;;;;;;;;;;11.40;99.90;;;;;;5076703;28;20281;-80
2022/04/27 00:47:49;;;;;;;;;;;11.40;99.90;;;;;;5058762;28;19915;-80
2022/04/27 00:50:14;;;;;;;;;;;11.40;99.90;;;;;;5058656;28;19911;-80
2022/04/27 00:52:40;;;;;;;;;;;11.40;99.90;;;;;;5076653;28;19995;-79
2022/04/27 00:55:06;;;;;;;;;;;11.40;99.90;;;;;;5076482;28;19904;-80
2022/04/27 00:57:33;;;;;;;;;;;11.40;99.90;;;;;;5076391;28;20462;-79
2022/04/27 00:59:58;;;;;;;;;;;11.40;99.90;;;;;;5076626;28;20288;-80
2022/04/27 01:02:24;;;;;;;;;;;11.40;99.90;;;;;;5076405;28;19904;-81
2022/04/27 01:04:50;;;;;;;;;;;11.40;99.90;;;;;;5076597;28;19908;-81
2022/04/27 01:07:16;;;;;;;;;;;11.30;99.90;;;;;;5076359;28;20426;-81
2022/04/27 01:09:42;;;;;;;;;;;11.40;99.90;;;;;;5076292;28;20006;-79
2022/04/27 01:12:08;;;;;;;;;;;11.30;99.90;;;;;;5076405;28;19904;-80
2022/04/27 01:14:44;;;;;;;;;;;11.50;99.90;;;;;;5076129;28;19905;-80
2022/04/27 01:17:10;;;;;;;;;;;11.40;99.90;;;;;;5076435;28;19914;-82
2022/04/27 01:19:36;;;;;;;;;;;11.50;99.90;;;;;;5076055;28;19904;-81
2022/04/27 01:22:02;;;;;;;;;;;11.30;99.90;;;;;;5076107;28;19904;-82
2022/04/27 01:24:27;;;;;;;;;;;11.20;99.90;;;;;;5076187;28;19911;-79
2022/04/27 01:26:53;;;;;;;;;;;11.20;99.90;;;;;;5057375;28;20307;-81
2022/04/27 01:29:19;;;;;;;;;;;11.20;99.90;;;;;;5076116;28;19936;-81
2022/04/27 01:31:45;;;;;;;;;;;11.10;99.90;;;;;;5075887;28;19905;-79
2022/04/27 01:34:12;;;;;;;;;;;11.20;99.90;;;;;;5075825;28;20264;-79
2022/04/27 01:36:37;;;;;;;;;;;11.30;99.90;;;;;;5075711;28;20368;-78
2022/04/27 01:39:03;;;;;;;;;;;11.30;99.90;;;;;;5075704;28;19904;-80
2022/04/27 01:41:29;;;;;;;;;;;11.20;99.90;;;;;;5075636;28;20396;-79
2022/04/27 01:43:55;;;;;;;;;;;11.10;99.90;;;;;;5075636;28;19912;-79
2022/04/27 01:46:20;;;;;;;;;;;11.10;99.90;;;;;;5075596;28;19912;-79
2022/04/27 01:48:46;;;;;;;;;;;11.00;99.90;;;;;;5075548;28;19977;-79
2022/04/27 01:51:11;;;;;;;;;;;11.00;99.90;;;;;;5057514;28;19911;-80
2022/04/27 01:56:21;;;;;;;;;;;11.00;99.90;;;;;;5075056;28;20415;-80
2022/04/27 01:58:47;;;;;;;;;;;11.00;99.90;;;;;;5075396;28;19905;-82
2022/04/27 02:01:13;;;;;;;;;;;11.10;99.90;;;;;;5075303;28;19955;-80
2022/04/27 02:03:39;;;;;;;;;;;11.10;99.90;;;;;;5075225;28;19999;-82
2022/04/27 02:06:05;;;;;;;;;;;10.90;99.90;;;;;;5075329;28;19904;-81
2022/04/27 02:08:31;;;;;;;;;;;10.90;99.90;;;;;;5075086;28;19910;-80
2022/04/27 02:10:57;;;;;;;;;;;10.90;99.90;;;;;;5075125;28;19904;-79
2022/04/27 02:13:24;;;;;;;;;;;10.90;99.90;;;;;;5075059;28;19911;-80
2022/04/27 02:15:49;;;;;;;;;;;11.00;99.90;;;;;;5075067;28;19970;-79
2022/04/27 02:18:17;;;;;;;;;;;11.00;99.90;;;;;;5074908;28;19908;-81
2022/04/27 02:20:42;;;;;;;;;;;11.00;99.90;;;;;;5074852;28;19911;-79
2022/04/27 02:23:08;;;;;;;;;;;11.00;99.90;;;;;;5075065;28;19904;-81
2022/04/27 02:25:33;;;;;;;;;;;10.90;99.90;;;;;;5056835;28;20375;-79
2022/04/27 02:27:59;;;;;;;;;;;10.90;99.90;;;;;;5056788;28;19911;-81
2022/04/27 02:30:24;;;;;;;;;;;10.80;99.90;;;;;;5074680;28;19904;-79
2022/04/27 02:32:50;;;;;;;;;;;10.80;99.90;;;;;;5074623;28;19908;-79
2022/04/27 02:35:16;;;;;;;;;;;10.70;99.90;;;;;;5074529;28;19904;-80
2022/04/27 02:37:42;;;;;;;;;;;10.70;99.90;;;;;;5074268;28;19912;-82
2022/04/27 02:40:09;;;;;;;;;;;10.70;99.90;;;;;;5055726;28;20353;-79
2022/04/27 02:42:34;;;;;;;;;;;10.70;99.90;;;;;;5056479;28;19905;-80
2022/04/27 02:45:00;;;;;;;;;;;10.80;99.90;;;;;;5074379;28;20292;-80
2022/04/27 02:47:26;;;;;;;;;;;10.70;99.90;;;;;;5074388;28;19904;-80
2022/04/27 02:52:36;;;;;;;;;;;10.50;99.90;;;;;;5074087;28;20010;-80
2022/04/27 02:55:02;;;;;;;;;;;10.50;99.90;;;;;;5074239;28;19939;-82
2022/04/27 02:57:27;;;;;;;;;;;10.40;99.90;;;;;;5056230;28;19920;-80
2022/04/27 02:59:53;;;;;;;;;;;10.50;99.90;;;;;;5074156;28;19905;-80
2022/04/27 03:02:19;;;;;;;;;;;10.40;99.90;;;;;;5074110;28;19927;-79
2022/04/27 03:04:44;;;;;;;;;;;10.50;99.90;;;;;;5074096;28;19904;-80
2022/04/27 03:07:10;;;;;;;;;;;10.50;99.90;;;;;;5074012;28;20291;-81
2022/04/27 03:09:36;;;;;;;;;;;10.50;99.90;;;;;;5056077;28;19911;-79
2022/04/27 03:12:01;;;;;;;;;;;10.30;99.90;;;;;;5073887;28;19904;-79
2022/04/27 03:14:30;;;;;;;;;;;10.30;99.90;;;;;;5056416;28;20410;-82
2022/04/27 03:16:56;;;;;;;;;;;10.30;99.90;;;;;;5073785;28;19999;-79
2022/04/27 03:19:22;;;;;;;;;;;10.30;99.90;;;;;;5073875;28;19943;-80
2022/04/27 03:21:48;;;;;;;;;;;10.30;99.90;;;;;;5073955;28;20003;-79
2022/04/27 03:24:13;;;;;;;;;;;10.20;99.90;;;;;;5055774;28;19904;-82
2022/04/27 03:26:39;;;;;;;;;;;10.20;99.90;;;;;;5074058;28;19904;-80
2022/04/27 03:29:04;;;;;;;;;;;10.10;99.90;;;;;;5073754;28;19904;-80
2022/04/27 03:31:30;;;;;;;;;;;10.10;99.90;;;;;;5074133;28;19940;-81
2022/04/27 03:33:56;;;;;;;;;;;10.10;99.90;;;;;;5073800;28;19995;-79
2022/04/27 03:36:22;;;;;;;;;;;10.10;99.90;;;;;;5073569;28;20435;-81
2022/04/27 03:38:50;;;;;;;;;;;9.90;99.90;;;;;;5073647;28;19905;-79
2022/04/27 03:41:20;;;;;;;;;;;10.00;99.90;;;;;;5074003;28;19958;-81
2022/04/27 03:43:50;;;;;;;;;;;10.00;99.90;;;;;;5055603;28;19905;-79
2022/04/27 03:46:16;;;;;;;;;;;10.10;99.90;;;;;;5073647;28;19904;-81
2022/04/27 03:48:41;;;;;;;;;;;10.10;99.90;;;;;;5073547;28;20369;-80
2022/04/27 03:51:07;;;;;;;;;;;9.90;99.90;;;;;;5078596;28;19905;-80
2022/04/27 03:53:33;;;;;;;;;;;9.80;99.90;;;;;;5080196;28;19904;-79
2022/04/27 03:55:59;;;;;;;;;;;9.90;99.90;;;;;;5080110;28;20390;-79
2022/04/27 03:58:24;;;;;;;;;;;9.90;99.90;;;;;;5080108;28;20004;-80
2022/04/27 04:00:50;;;;;;;;;;;9.80;99.90;;;;;;5080158;28;20001;-81
2022/04/27 04:03:16;;;;;;;;;;;9.80;99.90;;;;;;5080117;28;20299;-80
2022/04/27 04:05:41;;;;;;;;;;;9.90;99.90;;;;;;5062030;28;19950;-79
2022/04/27 04:08:07;;;;;;;;;;;9.90;99.90;;;;;;5080024;28;19905;-80
2022/04/27 04:10:33;;;;;;;;;;;9.80;99.90;;;;;;5061921;28;19905;-78
2022/04/27 04:12:58;;;;;;;;;;;9.80;99.90;;;;;;5080344;28;19927;-81
2022/04/27 04:15:24;;;;;;;;;;;9.70;99.90;;;;;;5080252;28;19970;-79
2022/04/27 04:17:49;;;;;;;;;;;9.80;99.90;;;;;;5080127;28;19908;-81
2022/04/27 04:20:17;;;;;;;;;;;9.80;99.90;;;;;;5079903;28;19905;-81
2022/04/27 04:22:43;;;;;;;;;;;9.70;99.90;;;;;;5079919;28;19904;-80
2022/04/27 04:30:37;;;;;;;;;;;9.60;99.90;;;;;;5080114;28;19949;-79
2022/04/27 04:33:02;;;;;;;;;;;9.60;99.90;;;;;;5080379;28;19909;-79
2022/04/27 04:35:28;;;;;;;;;;;9.60;99.90;;;;;;5079827;28;19908;-79
2022/04/27 04:37:54;;;;;;;;;;;9.50;99.90;;;;;;5079410;28;19912;-79
2022/04/27 04:40:20;;;;;;;;;;;9.50;99.90;;;;;;5061735;28;19911;-79
2022/04/27 04:42:46;;;;;;;;;;;9.40;99.90;;;;;;5079922;28;19904;-80
2022/04/27 04:45:11;;;;;;;;;;;9.50;99.90;;;;;;5061729;28;19905;-81
2022/04/27 04:47:37;;;;;;;;;;;9.50;99.90;;;;;;5079730;28;19911;-79
2022/04/27 04:50:02;;;;;;;;;;;9.40;99.90;;;;;;5079628;28;19943;-81
2022/04/27 04:52:28;;;;;;;;;;;9.60;99.90;;;;;;5079789;28;20416;-80
2022/04/27 04:54:54;;;;;;;;;;;9.40;99.90;;;;;;5079627;28;19905;-81
2022/04/27 04:57:19;;;;;;;;;;;9.40;99.90;;;;;;5079460;28;19919;-80
2022/04/27 04:59:45;;;;;;;;;;;9.40;99.90;;;;;;5079605;28;19905;-81
2022/04/27 05:02:10;;;;;;;;;;;9.40;99.90;;;;;;5058629;28;20429;-81
2022/04/27 05:04:36;;;;;;;;;;;9.30;99.90;;;;;;5076591;28;19957;-81
2022/04/27 05:07:01;;;;;;;;;;;9.20;99.90;;;;;;5076335;28;19905;-81
2022/04/27 05:09:27;;;;;;;;;;;9.30;99.90;;;;;;5058326;28;20038;-81
2022/04/27 05:11:53;;;;;;;;;;;9.30;99.90;;;;;;5058243;28;19953;-80
2022/04/27 05:14:18;;;;;;;;;;;9.40;99.90;;;;;;5076189;28;19998;-79
2022/04/27 05:16:44;;;;;;;;;;;9.30;99.90;;;;;;5076108;28;19909;-81
2022/04/27 05:19:09;;;;;;;;;;;9.20;99.90;;;;;;5076153;28;20376;-78
2022/04/27 05:21:35;;;;;;;;;;;9.20;99.90;;;;;;5076042;28;19994;-82
2022/04/27 05:24:01;;;;;;;;;;;9.30;99.90;;;;;;5058109;28;19908;-80
2022/04/27 05:26:26;;;;;;;;;;;9.20;99.90;;;;;;5076044;28;19904;-81
2022/04/27 05:31:54;;;;;;;;;;;9.30;99.90;;;;;;5075893;28;20004;-78
2022/04/27 05:34:20;;;;;;;;;;;9.30;99.90;;;;;;5076085;28;19915;-81
2022/04/27 05:36:46;;;;;;;;;;;9.30;99.90;;;;;;5075581;28;19916;-81
2022/04/27 05:39:12;;;;;;;;;;;9.30;99.90;;;;;;5057727;28;19937;-79
2022/04/27 05:41:38;;;;;;;;;;;9.40;99.90;;;;;;5075757;28;19912;-80
2022/04/27 05:44:07;;;;;;;;;;;9.40;99.90;;;;;;5075941;28;19904;-81
2022/04/27 05:46:36;;;;;;;;;;;9.40;99.90;;;;;;5075547;28;19905;-79
2022/04/27 05:49:02;;;;;;;;;;;9.60;99.90;;;;;;5057290;28;20372;-81
2022/04/27 05:51:27;;;;;;;;;;;9.60;99.90;;;;;;5075491;28;19962;-80
2022/04/27 05:53:53;;;;;;;;;;;9.80;99.90;;;;;;5075480;28;20353;-79
2022/04/27 05:56:19;;;;;;;;;;;9.80;99.90;;;;;;5075215;28;20372;-81
2022/04/27 05:58:45;;;;;;;;;;;9.70;99.90;;;;;;5057397;28;19908;-80
2022/04/27 06:01:11;;;;;;;;;;;9.70;99.90;;;;;;5075274;28;20253;-81
2022/04/27 06:03:37;;;;;;;;;;;9.90;99.90;;;;;;5075164;28;19904;-79
2022/04/27 06:06:03;;;;;;;;;;;9.90;99.90;;;;;;5057328;28;20379;-81
2022/04/27 06:08:29;;;;;;;;;;;10.00;99.90;;;;;;5075220;28;19904;-81
2022/04/27 06:10:54;;;;;;;;;;;10.00;99.90;;;;;;5075039;28;19905;-79
2022/04/27 06:13:20;;;;;;;;;;;10.00;99.90;;;;;;5074887;28;20319;-80
2022/04/27 06:15:45;;;;;;;;;;;10.20;99.90;;;;;;5057060;28;19914;-80
2022/04/27 06:18:11;;;;;;;;;;;10.30;99.90;;;;;;5074970;28;19912;-81
2022/04/27 06:20:37;;;;;;;;;;;10.30;99.90;;;;;;5056938;28;19955;-79
2022/04/27 06:23:02;;;;;;;;;;;10.40;99.90;;;;;;5074911;28;19911;-80
2022/04/27 06:25:30;;;;;;;;;;;10.40;99.90;;;;;;5075041;28;19905;-81
2022/04/27 06:27:55;;;;;;;;;;;10.60;99.90;;;;;;5074779;28;20352;-81
2022/04/27 06:30:21;;;;;;;;;;;10.70;99.90;;;;;;5056800;28;19908;-79
2022/04/27 06:32:47;;;;;;;;;;;10.80;99.90;;;;;;5056696;28;19927;-80
2022/04/27 06:35:15;;;;;;;;;;;10.90;99.90;;;;;;5074680;28;19905;-80
2022/04/27 06:37:41;;;;;;;;;;;10.90;99.90;;;;;;5074292;28;19916;-80
2022/04/27 06:40:06;;;;;;;;;;;11.20;99.90;;;;;;5074472;28;19911;-79
2022/04/27 06:42:32;;;;;;;;;;;11.10;99.90;;;;;;5074966;28;19909;-79
2022/04/27 06:45:01;;;;;;;;;;;11.40;99.90;;;;;;5056531;28;19904;-80
2022/04/27 06:47:27;;;;;;;;;;;11.60;99.90;;;;;;5074518;28;19958;-80
2022/04/27 06:49:52;;;;;;;;;;;12.50;99.90;;;;;;5073965;28;19908;-80
2022/04/27 06:52:18;;;;;;;;;;;13.20;99.90;;;;;;5056305;28;19947;-78
2022/04/27 06:54:43;;;;;;;;;;;13.70;98.50;;;;;;5074224;28;19911;-81
2022/04/27 06:57:09;;;;;;;;;;;14.10;96.50;;;;;;5074127;28;20292;-81
2022/04/27 06:59:35;;;;;;;;;;;14.50;95.30;;;;;;5074185;28;20387;-79
2022/04/27 07:02:00;;;;;;;;;;;14.70;94.00;;;;;;5074161;28;19916;-80
2022/04/27 07:04:27;;;;;;;;;;;14.60;94.30;;;;;;5074081;28;19908;-80
2022/04/27 07:06:53;;;;;;;;;;;14.90;93.60;;;;;;5074068;28;19969;-80
2022/04/27 07:09:18;;;;;;;;;;;14.70;94.20;;;;;;5074116;28;20323;-81
2022/04/27 07:11:44;;;;;;;;;;;14.90;93.70;;;;;;5055973;28;19911;-80
2022/04/27 07:14:13;;;;;;;;;;;15.10;93.00;;;;;;5074179;28;19904;-79
2022/04/27 07:16:39;;;;;;;;;;;15.30;92.90;;;;;;5055856;28;19931;-79
2022/04/27 07:19:04;;;;;;;;;;;15.20;91.80;;;;;;5073867;28;20348;-79
2022/04/27 07:21:30;;;;;;;;;;;15.50;91.70;;;;;;5073963;28;19908;-79
2022/04/27 07:23:58;;;;;;;;;;;15.60;91.00;;;;;;5073923;28;20376;-80
2022/04/27 07:26:23;;;;;;;;;;;15.80;90.40;;;;;;5073274;28;19912;-81
2022/04/27 07:28:49;;;;;;;;;;;16.00;89.10;;;;;;5055742;28;19908;-78
2022/04/27 07:31:14;;;;;;;;;;;16.30;88.90;;;;;;5074091;28;19928;-79
2022/04/27 07:33:40;;;;;;;;;;;16.80;86.80;;;;;;5073924;28;19940;-79
2022/04/27 07:36:06;;;;;;;;;;;17.00;84.20;;;;;;5073432;28;19914;-79
2022/04/27 07:38:32;;;;;;;;;;;17.00;83.50;;;;;;5073747;28;19947;-80
2022/04/27 07:40:57;;;;;;;;;;;17.00;82.50;;;;;;5073671;28;19936;-81
2022/04/27 07:43:23;;;;;;;;;;;17.30;81.20;;;;;;5073637;28;20280;-80
2022/04/27 07:45:48;;;;;;;;;;;17.30;81.20;;;;;;5073602;28;20288;-81
2022/04/27 07:48:14;;;;;;;;;;;17.20;81.00;;;;;;5073547;28;19908;-81
2022/04/27 07:50:40;;;;;;;;;;;17.30;82.00;;;;;;5073515;28;20002;-79
2022/04/27 07:53:06;;;;;;;;;;;17.60;80.90;;;;;;5073563;28;19904;-79
2022/04/27 07:55:31;;;;;;;;;;;17.50;79.90;;;;;;5073426;28;19910;-80
2022/04/27 07:57:57;;;;;;;;;;;17.70;77.90;;;;;;5073500;28;20289;-79
2022/04/27 08:00:23;;;;;;;;;;;18.00;77.90;;;;;;5073431;28;20010;-79
2022/04/27 08:02:49;;;;;;;;;;;18.30;77.60;;;;;;5055453;28;19952;-80
2022/04/27 08:05:15;;;;;;;;;;;18.60;75.20;;;;;;5073642;28;20356;-80
2022/04/27 08:07:44;;;;;;;;;;;18.80;76.80;;;;;;5073374;28;20021;-79
2022/04/27 08:10:11;;;;;;;;;;;19.00;72.30;;;;;;5073248;28;19909;-80
2022/04/27 08:12:37;;;;;;;;;;;18.80;72.80;;;;;;5073348;28;19948;-81
2022/04/27 08:15:03;;;;;;;;;;;18.90;73.10;;;;;;5073333;28;19958;-81
2022/04/27 08:17:28;;;;;;;;;;;19.60;70.90;;;;;;5073646;28;19912;-82
2022/04/27 08:21:13;;;;;;;;;;;20.20;68.40;;;;;;5073591;28;19904;-81
2022/04/27 08:22:39;;;;;;;;;;;20.60;66.00;;;;;;5072905;28;19994;-80
2022/04/27 08:25:05;;;;;;;;;;;20.50;66.40;;;;;;5073180;28;19936;-80
2022/04/27 08:27:30;;;;;;;;;;;20.40;65.50;;;;;;5055136;28;20422;-81
2022/04/27 08:29:56;;;;;;;;;;;20.90;66.00;;;;;;5073388;28;19904;-82
2022/04/27 08:32:22;;;;;;;;;;;21.80;62.30;;;;;;5073230;28;20332;-79
2022/04/27 08:34:50;;;;;;;;;;;22.30;60.20;;;;;;5073192;28;19912;-81
2022/04/27 08:37:16;;;;;;;;;;;22.70;58.40;;;;;;5074103;28;19923;-80
2022/04/27 08:39:41;;;;;;;;;;;23.00;56.40;;;;;;5058813;28;19905;-78
2022/04/27 08:42:09;;;;;;;;;;;23.70;54.60;;;;;;5076830;28;20001;-81
2022/04/27 08:44:38;;;;;;;;;;;24.10;54.00;;;;;;5076728;28;20387;-79
2022/04/27 08:47:04;;;;;;;;;;;24.30;54.20;;;;;;5077118;28;19940;-77
2022/04/27 08:49:33;;;;;;;;;;;24.90;53.00;;;;;;5076777;28;19930;-80
2022/04/27 08:52:00;;;;;;;;;;;24.80;51.90;;;;;;5058686;28;20375;-77
2022/04/27 08:54:26;;;;;;;;;;;24.80;51.90;;;;;;5076617;28;19904;-78
2022/04/27 08:56:52;;;;;;;;;;;24.10;52.10;;;;;;5076450;28;19919;-78
2022/04/27 08:59:18;;;;;;;;;;;23.40;53.70;;;;;;5058534;28;19904;-78
2022/04/27 09:01:44;;;;;;;;;;;23.50;52.90;;;;;;5076446;28;19928;-79
2022/04/27 09:04:14;;;;;;;;;;;24.00;52.60;;;;;;5076626;28;19904;-77
2022/04/27 09:06:40;;;;;;;;;;;24.40;52.30;;;;;;5076317;28;20279;-79
2022/04/27 09:09:10;;;;;;;;;;;25.10;51.00;;;;;;5076535;28;19905;-79
2022/04/27 09:11:37;;;;;;;;;;;25.70;49.70;;;;;;5076540;28;19904;-79
2022/04/27 09:14:09;;;;;;;;;;;25.60;49.80;;;;;;5076244;28;19905;-79
2022/04/27 09:22:07;;;;;;;;;;;27.90;46.70;;;;;;5076285;28;19950;-78
2022/04/27 09:24:47;;;;;;;;;;;29.30;44.50;;;;;;5076090;28;19943;-78
2022/04/27 09:27:18;;;;;;;;;;;29.80;43.70;;;;;;5075980;28;19911;-78
2022/04/27 09:30:04;;;;;;;;;;;29.40;43.80;;;;;;5075932;28;20391;-78
2022/04/27 09:32:30;;;;;;;;;;;28.80;43.50;;;;;;5057906;28;19905;-77
2022/04/27 09:34:56;;;;;;;;;;;29.20;43.20;;;;;;5075848;28;19910;-79
2022/04/27 09:37:24;;;;;;;;;;;29.10;43.10;;;;;;5075636;28;19965;-79
2022/04/27 09:40:07;;;;;;;;;;;28.80;43.00;;;;;;5058312;28;19926;-77
2022/04/27 09:42:35;;;;;;;;;;;28.60;42.00;;;;;;5075823;28;19908;-76
2022/04/27 09:45:14;;;;;;;;;;;27.70;42.90;;;;;;5075591;28;19988;-78
2022/04/27 09:47:46;;;;;;;;;;;26.40;44.80;;;;;;5057190;28;19987;-80
2022/04/27 09:50:12;;;;;;;;;;;26.80;45.60;;;;;;5075574;28;19911;-79
2022/04/27 09:52:38;;;;;;;;;;;26.30;44.70;;;;;;5057547;28;19905;-77
2022/04/27 09:55:05;;;;;;;;;;;27.00;44.90;;;;;;5075475;28;19904;-78
2022/04/27 09:57:31;;;;;;;;;;;28.50;42.80;;;;;;5075457;28;19913;-78
2022/04/27 09:59:57;;;;;;;;;;;27.50;43.00;;;;;;5075343;28;19958;-77
2022/04/27 10:02:24;;;;;;;;;;;27.20;43.50;;;;;;5075353;28;19904;-79
2022/04/27 10:04:51;;;;;;;;;;;28.20;43.70;;;;;;5075280;28;20360;-79
2022/04/27 10:07:20;;;;;;;;;;;30.20;41.80;;;;;;5075248;28;19904;-80
2022/04/27 10:09:47;;;;;;;;;;;30.80;39.70;;;;;;5075227;28;19911;-78
2022/04/27 10:12:13;;;;;;;;;;;31.00;38.60;;;;;;5075041;28;19905;-80
2022/04/27 10:14:39;;;;;;;;;;;32.40;38.10;;;;;;5075443;28;19904;-80
2022/04/27 10:17:05;;;;;;;;;;;33.30;37.50;;;;;;5057002;28;19908;-79
2022/04/27 10:19:30;;;;;;;;;;;34.90;35.60;;;;;;5074969;28;19905;-80
2022/04/27 10:22:05;;;;;;;;;;;36.00;35.40;;;;;;5074994;28;20387;-79
2022/04/27 10:24:33;;;;;;;;;;;36.40;35.00;;;;;;5075351;28;19958;-80
2022/04/27 10:27:14;;;;;;;;;;;36.30;34.40;;;;;;5074808;28;19911;-79
2022/04/27 10:29:40;;;;;;;;;;;35.10;33.60;;;;;;5056896;28;19944;-80
2022/04/27 10:32:05;;;;;;;;;;;35.50;34.90;;;;;;5056728;28;20430;-81
2022/04/27 10:34:33;;;;;;;;;;;35.70;33.50;;;;;;5074911;28;19951;-80
2022/04/27 10:37:00;;;;;;;;;;;35.70;33.90;;;;;;5074431;28;19916;-78
2022/04/27 10:39:26;;;;;;;;;;;34.90;33.50;;;;;;5074866;28;19915;-81
2022/04/27 10:42:03;;;;;;;;;;;35.60;33.40;;;;;;5074549;28;19909;-79
2022/04/27 10:44:55;;;;;;;;;;;36.40;33.90;;;;;;5074515;28;20361;-82
2022/04/27 10:47:22;;;;;;;;;;;36.60;32.80;;;;;;5028714;28;19962;-78
2022/04/27 10:49:51;;;;;;;;;;;37.00;31.70;;;;;;5056486;28;19911;-79
2022/04/27 10:52:22;;;;;;;;;;;36.10;33.00;;;;;;5074352;28;19904;-80
2022/04/27 10:54:48;;;;;;;;;;;38.00;33.20;;;;;;5074596;28;19953;-79
2022/04/27 10:57:13;;;;;;;;;;;36.90;31.30;;;;;;5074172;28;19908;-79
2022/04/27 10:59:47;;;;;;;;;;;36.00;32.70;;;;;;5073515;28;20403;-81
2022/04/27 11:02:35;;;;;;;;;;;36.40;32.50;;;;;;5074130;28;19904;-79
2022/04/27 11:05:01;;;;;;;;;;;33.90;32.60;;;;;;5073935;28;19954;-80
2022/04/27 11:07:36;;;;;;;;;;;32.80;34.30;;;;;;5074065;28;19904;-80
2022/04/27 11:10:09;;;;;;;;;;;33.60;34.00;;;;;;5055950;28;19904;-78
2022/04/27 11:12:39;;;;;;;;;;;32.70;34.80;;;;;;5073951;28;19911;-79
2022/04/27 11:15:06;;;;;;;;;;;33.40;35.30;;;;;;5074042;28;19904;-79
2022/04/27 11:17:34;;;;;;;;;;;34.20;34.70;;;;;;5074030;28;19913;-78
2022/04/27 11:20:03;;;;;;;;;;;34.20;34.40;;;;;;5073875;28;20387;-80
2022/04/27 11:22:36;;;;;;;;;;;34.50;34.70;;;;;;5073877;28;19904;-79
2022/04/27 11:25:05;;;;;;;;;;;34.70;33.40;;;;;;5074063;28;19912;-79
2022/04/27 11:27:33;;;;;;;;;;;34.40;34.00;;;;;;5073872;28;20003;-78
2022/04/27 11:30:01;;;;;;;;;;;35.20;33.90;;;;;;5073844;28;19905;-80
2022/04/27 11:32:29;;;;;;;;;;;35.60;33.90;;;;;;5073929;28;19911;-81
2022/04/27 11:34:55;;;;;;;;;;;35.80;34.00;;;;;;5073733;28;20049;-80
2022/04/27 11:37:21;;;;;;;;;;;35.70;32.90;;;;;;5073415;28;20019;-78
2022/04/27 11:39:47;;;;;;;;;;;36.00;33.50;;;;;;5073697;28;19905;-79
2022/04/27 11:42:13;;;;;;;;;;;36.60;33.30;;;;;;5073669;28;19904;-78
2022/04/27 11:44:39;;;;;;;;;;;35.70;32.80;;;;;;5073983;28;19991;-79
2022/04/27 11:47:23;;;;;;;;;;;35.70;32.60;;;;;;5073678;28;20365;-80
2022/04/27 11:49:59;;;;;;;;;;;36.40;33.00;;;;;;5073671;28;19912;-77
2022/04/27 11:52:25;;;;;;;;;;;37.60;32.90;;;;;;5073497;28;19904;-80
2022/04/27 11:54:51;;;;;;;;;;;39.10;31.60;;;;;;5073555;28;19904;-79
2022/04/27 11:57:21;;;;;;;;;;;40.40;31.80;;;;;;5073431;28;19999;-79
2022/04/27 11:59:51;;;;;;;;;;;40.40;30.50;;;;;;5055490;28;19904;-79
2022/04/27 12:02:24;;;;;;;;;;;41.40;30.80;;;;;;5073791;28;19908;-79
2022/04/27 12:04:51;;;;;;;;;;;41.30;30.90;;;;;;5073408;28;19927;-79
2022/04/27 12:07:17;;;;;;;;;;;41.80;30.80;;;;;;5073548;28;19910;-79
2022/04/27 12:09:56;;;;;;;;;;;39.90;31.40;;;;;;5073337;28;19911;-80
2022/04/27 12:12:21;;;;;;;;;;;39.60;30.00;;;;;;5076506;28;20003;-80
2022/04/27 12:14:47;;;;;;;;;;;39.80;31.00;;;;;;5077654;28;19944;-79
2022/04/27 12:17:31;;;;;;;;;;;40.80;31.40;;;;;;5077265;28;20440;-79
2022/04/27 12:19:57;;;;;;;;;;;41.00;30.20;;;;;;5077485;28;19905;-81
2022/04/27 12:22:23;;;;;;;;;;;40.20;30.00;;;;;;5077418;28;19927;-78
2022/04/27 12:24:48;;;;;;;;;;;40.90;30.10;;;;;;5077257;28;19911;-80
2022/04/27 12:27:21;;;;;;;;;;;41.40;30.50;;;;;;5077179;28;19905;-77
2022/04/27 12:29:46;;;;;;;;;;;41.80;30.10;;;;;;5059133;28;20315;-79
2022/04/27 12:32:12;;;;;;;;;;;42.70;29.90;;;;;;5076984;28;19949;-79
2022/04/27 12:37:29;;;;;;;;;;;42.00;29.80;;;;;;5076771;28;19923;-80
2022/04/27 12:39:55;;;;;;;;;;;41.80;29.50;;;;;;5076866;28;19956;-80
2022/04/27 12:42:21;;;;;;;;;;;42.00;29.70;;;;;;5077043;28;19939;-80
2022/04/27 12:44:46;;;;;;;;;;;41.20;30.30;;;;;;5076953;28;19911;-80
2022/04/27 12:47:13;;;;;;;;;;;40.80;30.00;;;;;;5058784;28;19904;-80
2022/04/27 12:49:40;;;;;;;;;;;41.00;30.20;;;;;;5076681;28;19904;-80
2022/04/27 12:52:19;;;;;;;;;;;41.30;29.60;;;;;;5058684;28;20292;-79
2022/04/27 12:54:46;;;;;;;;;;;40.90;29.70;;;;;;5076654;28;19914;-78
2022/04/27 12:57:12;;;;;;;;;;;40.50;29.60;;;;;;5076464;28;19952;-78
2022/04/27 12:59:57;;;;;;;;;;;41.50;29.80;;;;;;5058526;28;19904;-79
2022/04/27 13:02:23;;;;;;;;;;;41.80;30.10;;;;;;5076508;28;19905;-78
2022/04/27 13:04:49;;;;;;;;;;;41.90;29.60;;;;;;5076451;28;20335;-79
2022/04/27 13:07:14;;;;;;;;;;;42.30;29.70;;;;;;5076378;28;19905;-77
2022/04/27 13:12:31;;;;;;;;;;;40.60;30.20;;;;;;5076189;28;19910;-80
2022/04/27 13:14:57;;;;;;;;;;;40.70;30.00;;;;;;5076258;28;19905;-78
2022/04/27 13:17:23;;;;;;;;;;;40.70;30.10;;;;;;5076120;28;20003;-79
2022/04/27 13:19:48;;;;;;;;;;;40.30;30.50;;;;;;5076156;28;19997;-80
2022/04/27 13:22:14;;;;;;;;;;;37.70;30.80;;;;;;5075540;28;19911;-79
2022/04/27 13:24:39;;;;;;;;;;;35.40;31.60;;;;;;5075708;28;19991;-80
2022/04/27 13:27:05;;;;;;;;;;;34.30;33.10;;;;;;5076452;28;19905;-78
2022/04/27 13:29:31;;;;;;;;;;;33.40;33.90;;;;;;5076129;28;19931;-78
2022/04/27 13:31:57;;;;;;;;;;;34.70;33.10;;;;;;5075907;28;20372;-77
2022/04/27 13:34:23;;;;;;;;;;;36.60;32.60;;;;;;5075948;28;19940;-77
2022/04/27 13:36:48;;;;;;;;;;;35.80;32.90;;;;;;5054304;28;19923;-77
2022/04/27 13:39:14;;;;;;;;;;;34.70;33.20;;;;;;5055772;28;19983;-79
2022/04/27 13:41:40;;;;;;;;;;;32.30;35.00;;;;;;5055761;28;19905;-79
2022/04/27 13:44:05;;;;;;;;;;;31.40;36.20;;;;;;5055704;28;19999;-77
2022/04/27 13:46:31;;;;;;;;;;;31.10;35.50;;;;;;5055665;28;19908;-79
2022/04/27 13:48:57;;;;;;;;;;;31.30;35.80;;;;;;5055602;28;20353;-78
2022/04/27 13:51:22;;;;;;;;;;;30.60;36.00;;;;;;5055988;28;19905;-78
2022/04/27 13:53:48;;;;;;;;;;;30.70;36.30;;;;;;5055570;28;19904;-78
2022/04/27 13:56:14;;;;;;;;;;;31.70;36.60;;;;;;5055651;28;20284;-77
2022/04/27 13:58:39;;;;;;;;;;;32.00;34.90;;;;;;5055451;28;19905;-78
2022/04/27 14:01:05;;;;;;;;;;;32.50;34.70;;;;;;5030301;28;19999;-78
2022/04/27 14:03:31;;;;;;;;;;;32.30;35.50;;;;;;5055285;28;19909;-78
2022/04/27 14:05:57;;;;;;;;;;;33.00;35.20;;;;;;5055372;28;19905;-78
2022/04/27 14:08:22;;;;;;;;;;;32.90;35.30;;;;;;5052884;28;19905;-78
2022/04/27 14:10:48;;;;;;;;;;;32.40;35.70;;;;;;5054837;28;20340;-78
2022/04/27 14:13:14;;;;;;;;;;;32.60;35.80;;;;;;5054607;28;19911;-76
2022/04/27 14:15:41;;;;;;;;;;;31.60;35.90;;;;;;5054621;28;19905;-77
2022/04/27 14:18:15;;;;;;;;;;;30.60;37.70;;;;;;5052484;28;20265;-78
2022/04/27 14:20:42;;;;;;;;;;;30.50;36.50;;;;;;5054702;28;20428;-78
2022/04/27 14:23:09;;;;;;;;;;;30.90;37.20;;;;;;5054700;28;20365;-77
2022/04/27 14:25:39;;;;;;;;;;;31.20;36.20;;;;;;5054491;28;19908;-78
2022/04/27 14:28:05;;;;;;;;;;;30.50;36.50;;;;;;5051689;28;19911;-77
2022/04/27 14:30:30;;;;;;;;;;;31.10;36.60;;;;;;5053000;28;19909;-78
2022/04/27 14:32:56;;;;;;;;;;;30.10;37.00;;;;;;5054402;28;19904;-77
2022/04/27 14:35:21;;;;;;;;;;;29.40;37.60;;;;;;5054360;28;19920;-79
2022/04/27 14:37:47;;;;;;;;;;;29.30;38.70;;;;;;5067037;28;20498;-77
2022/04/27 14:40:13;;;;;;;;;;;29.20;38.60;;;;;;5074480;28;20364;-77
2022/04/27 14:42:39;;;;;;;;;;;29.30;39.60;;;;;;5074227;28;20371;-78